Time;durP1;ratioP1;P1;durP2;ratioP2;P2;SDS_P1;SDS_P2;PMS_P1;PMS_P2;Temp;Humidity;BMP_temperature;BMP_pressure;BME280_temperature;BME280_humidity;BME280_pressure;Samples;Min_cycle;Max_cycle;Signal;HPM_P1;HPM_P2
2023/11/16 00:03:16;;;;;;;0.68;0.45;;;;;;;;;;5415894;22;20078;-80
2023/11/16 00:05:45;;;;;;;1.20;0.20;;;;;;;;;;5082887;28;20064;-79
2023/11/16 00:08:12;;;;;;;0.35;0.32;;;;;;;;;;5082301;28;20474;-79
2023/11/16 00:10:39;;;;;;;1.00;0.40;;;;;;;;;;5081339;28;20020;-79
2023/11/16 00:13:05;;;;;;;0.40;0.20;;;;;;;;;;5079470;28;20063;-78
2023/11/16 00:15:32;;;;;;;0.40;0.35;;;;;;;;;;5061898;28;20033;-78
2023/11/16 00:17:58;;;;;;;1.15;0.52;;;;;;;;;;5071918;28;20032;-80
2023/11/16 00:20:24;;;;;;;0.63;0.30;;;;;;;;;;5064016;28;20028;-80
2023/11/16 00:22:50;;;;;;;0.25;0.25;;;;;;;;;;5063869;28;20426;-80
2023/11/16 00:25:19;;;;;;;0.20;0.20;;;;;;;;;;5064359;28;20053;-80
2023/11/16 00:27:45;;;;;;;1.00;0.40;;;;;;;;;;5062563;28;20492;-79
2023/11/16 00:30:12;;;;;;;0.40;0.30;;;;;;;;;;5061804;28;20044;-79
2023/11/16 00:32:39;;;;;;;0.68;0.22;;;;;;;;;;5061980;28;20135;-80
2023/11/16 00:35:06;;;;;;;2.53;0.60;;;;;;;;;;5072203;28;20017;-79
2023/11/16 00:37:32;;;;;;;0.60;0.40;;;;;;;;;;5064295;28;20021;-80
2023/11/16 00:40:00;;;;;;;1.25;0.40;;;;;;;;;;5083106;28;20027;-77
2023/11/16 00:42:28;;;;;;;0.80;0.40;;;;;;;;;;5071539;28;20032;-79
2023/11/16 00:44:54;;;;;;;0.73;0.47;;;;;;;;;;5060584;28;20017;-79
2023/11/16 00:47:20;;;;;;;0.70;0.40;;;;;;;;;;5061441;28;20052;-80
2023/11/16 00:49:46;;;;;;;0.20;0.20;;;;;;;;;;5069016;28;20036;-80
2023/11/16 00:52:13;;;;;;;0.40;0.38;;;;;;;;;;5059881;28;20009;-80
2023/11/16 00:54:39;;;;;;;0.20;0.20;;;;;;;;;;5059643;28;20028;-79
2023/11/16 00:57:05;;;;;;;0.60;0.22;;;;;;;;;;5060324;28;20080;-79
2023/11/16 00:59:31;;;;;;;1.27;0.30;;;;;;;;;;5062283;28;20036;-81
2023/11/16 01:01:58;;;;;;;0.25;0.20;;;;;;;;;;5061518;28;20021;-79
2023/11/16 01:04:25;;;;;;;0.32;0.20;;;;;;;;;;5060997;28;20045;-79
2023/11/16 01:06:53;;;;;;;0.85;0.52;;;;;;;;;;5063800;28;20096;-78
2023/11/16 01:09:20;;;;;;;1.48;0.30;;;;;;;;;;5065879;28;20480;-80
2023/11/16 01:11:46;;;;;;;2.00;0.30;;;;;;;;;;5067202;28;20028;-79
2023/11/16 01:14:16;;;;;;;1.67;0.50;;;;;;;;;;5070839;28;20020;-78
2023/11/16 01:16:44;;;;;;;4.40;0.80;;;;;;;;;;5069145;28;20032;-79
2023/11/16 01:19:12;;;;;;;1.45;0.50;;;;;;;;;;5070054;28;20025;-79
2023/11/16 01:21:44;;;;;;;0.82;0.40;;;;;;;;;;5069394;28;20100;-80
2023/11/16 01:24:11;;;;;;;0.80;0.40;;;;;;;;;;5065127;28;20036;-79
2023/11/16 01:26:39;;;;;;;0.50;0.30;;;;;;;;;;5056102;28;20084;-79
2023/11/16 01:29:08;;;;;;;1.17;0.40;;;;;;;;;;5069744;28;20013;-78
2023/11/16 01:31:35;;;;;;;1.08;0.40;;;;;;;;;;5066106;28;20080;-77
2023/11/16 01:34:01;;;;;;;0.65;0.35;;;;;;;;;;5065261;28;20029;-78
2023/11/16 01:36:27;;;;;;;0.77;0.35;;;;;;;;;;5065561;28;20028;-80
2023/11/16 01:38:53;;;;;;;0.30;0.30;;;;;;;;;;5064627;28;20029;-78
2023/11/16 01:41:20;;;;;;;0.55;0.32;;;;;;;;;;5063979;28;20029;-79
2023/11/16 01:43:46;;;;;;;2.30;0.57;;;;;;;;;;5069711;28;20021;-80
2023/11/16 01:46:15;;;;;;;1.05;0.38;;;;;;;;;;5072688;28;20029;-81
2023/11/16 01:48:43;;;;;;;0.80;0.38;;;;;;;;;;5066840;28;20092;-79
2023/11/16 01:51:11;;;;;;;2.35;0.60;;;;;;;;;;5074922;28;20049;-78
2023/11/16 01:54:03;;;;;;;0.43;0.30;;;;;;;;;;5071069;28;20027;-78
2023/11/16 01:56:31;;;;;;;1.08;0.40;;;;;;;;;;5068753;28;20099;-78
2023/11/16 01:58:59;;;;;;;0.63;0.35;;;;;;;;;;5070488;28;20032;-79
2023/11/16 02:01:27;;;;;;;0.35;0.35;;;;;;;;;;5072944;28;20021;-76
2023/11/16 02:03:53;;;;;;;0.32;0.20;;;;;;;;;;5064363;28;20060;-80
2023/11/16 02:06:19;;;;;;;0.30;0.25;;;;;;;;;;5062669;28;20160;-77
2023/11/16 02:08:45;;;;;;;0.28;0.28;;;;;;;;;;5062753;28;20025;-78
2023/11/16 02:11:11;;;;;;;0.63;0.35;;;;;;;;;;5064922;28;20033;-77
2023/11/16 02:13:37;;;;;;;0.60;0.20;;;;;;;;;;5060720;28;20032;-78
2023/11/16 02:16:06;;;;;;;0.45;0.30;;;;;;;;;;5061446;28;20087;-79
2023/11/16 02:18:33;;;;;;;0.63;0.30;;;;;;;;;;5061429;28;20020;-79
2023/11/16 02:20:59;;;;;;;0.28;0.28;;;;;;;;;;5075091;28;20020;-75
2023/11/16 02:23:25;;;;;;;0.43;0.30;;;;;;;;;;5074566;28;20017;-75
2023/11/16 02:25:52;;;;;;;1.52;0.50;;;;;;;;;;5059201;28;20028;-76
2023/11/16 02:28:19;;;;;;;0.35;0.28;;;;;;;;;;5074415;28;20029;-78
2023/11/16 02:30:46;;;;;;;0.10;0.10;;;;;;;;;;5077104;28;20028;-75
2023/11/16 02:33:12;;;;;;;0.65;0.43;;;;;;;;;;5067651;28;20072;-77
2023/11/16 02:35:38;;;;;;;0.20;0.17;;;;;;;;;;5063544;28;20070;-77
2023/11/16 02:38:06;;;;;;;0.35;0.20;;;;;;;;;;5062956;28;20036;-76
2023/11/16 02:40:32;;;;;;;0.65;0.20;;;;;;;;;;5063277;28;20028;-78
2023/11/16 02:42:59;;;;;;;0.25;0.25;;;;;;;;;;5066990;28;20029;-78
2023/11/16 02:45:26;;;;;;;0.30;0.20;;;;;;;;;;5069914;28;20084;-79
2023/11/16 02:47:52;;;;;;;0.65;0.30;;;;;;;;;;5067439;28;20029;-80
2023/11/16 02:50:19;;;;;;;0.20;0.20;;;;;;;;;;5057691;28;20021;-79
2023/11/16 02:52:46;;;;;;;0.95;0.32;;;;;;;;;;5072321;28;20017;-80
2023/11/16 02:55:12;;;;;;;0.28;0.22;;;;;;;;;;5054838;28;20103;-79
2023/11/16 02:57:41;;;;;;;0.22;0.22;;;;;;;;;;5064965;28;20483;-78
2023/11/16 03:00:14;;;;;;;0.47;0.35;;;;;;;;;;5063835;28;20084;-77
2023/11/16 03:02:41;;;;;;;0.38;0.20;;;;;;;;;;5067152;28;20502;-79
2023/11/16 03:05:12;;;;;;;1.05;0.30;;;;;;;;;;5062768;28;20037;-80
2023/11/16 03:07:38;;;;;;;0.38;0.20;;;;;;;;;;5062755;28;20108;-80
2023/11/16 03:10:13;;;;;;;0.60;0.20;;;;;;;;;;5065285;28;20488;-77
2023/11/16 03:12:39;;;;;;;1.65;0.20;;;;;;;;;;5063824;28;20079;-78
2023/11/16 03:15:06;;;;;;;0.25;0.17;;;;;;;;;;5062614;28;20024;-79
2023/11/16 03:17:43;;;;;;;0.30;0.28;;;;;;;;;;5062195;28;20032;-79
2023/11/16 03:20:10;;;;;;;0.57;0.40;;;;;;;;;;5061982;28;20108;-79
2023/11/16 03:22:36;;;;;;;1.55;0.45;;;;;;;;;;5063213;28;20025;-78
2023/11/16 03:25:05;;;;;;;2.15;0.57;;;;;;;;;;5057920;28;20602;-79
2023/11/16 03:27:32;;;;;;;0.30;0.30;;;;;;;;;;5065453;28;20028;-78
2023/11/16 03:29:58;;;;;;;0.47;0.30;;;;;;;;;;5064465;28;20024;-79
2023/11/16 03:32:25;;;;;;;0.32;0.22;;;;;;;;;;5063498;28;20033;-80
2023/11/16 03:34:52;;;;;;;0.57;0.22;;;;;;;;;;5062539;28;20017;-77
2023/11/16 03:37:19;;;;;;;0.15;0.15;;;;;;;;;;5062213;28;20024;-79
2023/11/16 03:39:45;;;;;;;0.35;0.30;;;;;;;;;;5061689;28;20017;-78
2023/11/16 03:42:11;;;;;;;0.63;0.45;;;;;;;;;;5060319;28;20441;-78
2023/11/16 03:44:37;;;;;;;0.40;0.20;;;;;;;;;;5061232;28;20052;-79
2023/11/16 03:47:04;;;;;;;0.13;0.13;;;;;;;;;;5062835;28;20086;-79
2023/11/16 03:49:30;;;;;;;0.75;0.20;;;;;;;;;;5065080;28;20027;-76
2023/11/16 03:51:59;;;;;;;0.60;0.40;;;;;;;;;;5077448;28;20017;-76
2023/11/16 03:54:25;;;;;;;0.65;0.32;;;;;;;;;;5070435;28;20057;-78
2023/11/16 03:56:53;;;;;;;0.30;0.30;;;;;;;;;;5062153;28;20039;-78
2023/11/16 03:59:21;;;;;;;0.40;0.20;;;;;;;;;;5054077;28;20021;-78
2023/11/16 04:01:48;;;;;;;0.70;0.40;;;;;;;;;;5063149;28;20021;-77
2023/11/16 04:04:15;;;;;;;0.17;0.17;;;;;;;;;;5060946;28;20132;-77
2023/11/16 04:06:41;;;;;;;0.73;0.13;;;;;;;;;;5057801;28;20020;-79
2023/11/16 04:09:09;;;;;;;1.42;0.28;;;;;;;;;;5058281;28;20016;-78
2023/11/16 04:11:40;;;;;;;0.80;0.35;;;;;;;;;;5058982;28;20027;-80
2023/11/16 04:14:07;;;;;;;0.13;0.10;;;;;;;;;;5059989;28;20075;-80
2023/11/16 04:16:34;;;;;;;0.77;0.20;;;;;;;;;;5059018;28;20383;-78
2023/11/16 04:19:00;;;;;;;0.22;0.20;;;;;;;;;;5060015;28;20112;-80
2023/11/16 04:21:28;;;;;;;0.68;0.40;;;;;;;;;;5060991;28;20037;-81
2023/11/16 04:23:59;;;;;;;0.20;0.10;;;;;;;;;;5055972;28;20025;-78
2023/11/16 04:26:29;;;;;;;0.30;0.20;;;;;;;;;;5060812;28;20390;-78
2023/11/16 04:28:57;;;;;;;0.40;0.22;;;;;;;;;;5054483;28;20055;-77
2023/11/16 04:31:26;;;;;;;0.30;0.20;;;;;;;;;;5052436;28;20017;-77
2023/11/16 04:33:52;;;;;;;0.93;0.30;;;;;;;;;;5052428;28;20112;-77
2023/11/16 04:36:23;;;;;;;0.90;0.40;;;;;;;;;;5054785;28;20025;-77
2023/11/16 04:38:50;;;;;;;1.02;0.43;;;;;;;;;;5052471;28;20024;-77
2023/11/16 04:41:16;;;;;;;0.77;0.40;;;;;;;;;;5052406;28;20021;-78
2023/11/16 04:43:44;;;;;;;1.05;0.35;;;;;;;;;;5052383;28;20032;-77
2023/11/16 04:46:13;;;;;;;0.40;0.20;;;;;;;;;;5060209;28;20475;-77
2023/11/16 04:48:43;;;;;;;0.70;0.30;;;;;;;;;;5055134;28;20036;-77
2023/11/16 04:51:09;;;;;;;0.20;0.20;;;;;;;;;;5054515;28;20107;-77
2023/11/16 04:53:36;;;;;;;0.70;0.32;;;;;;;;;;5056350;28;20080;-76
2023/11/16 04:56:03;;;;;;;0.75;0.20;;;;;;;;;;5053625;28;20021;-76
2023/11/16 04:58:29;;;;;;;0.10;0.10;;;;;;;;;;5052389;28;20029;-77
2023/11/16 05:00:55;;;;;;;0.20;0.20;;;;;;;;;;5051678;28;20368;-76
2023/11/16 05:03:21;;;;;;;0.15;0.15;;;;;;;;;;5043760;28;20419;-76
2023/11/16 05:05:48;;;;;;;0.15;0.15;;;;;;;;;;5052580;28;20021;-75
2023/11/16 05:08:14;;;;;;;0.25;0.25;;;;;;;;;;5052402;28;20051;-77
2023/11/16 05:10:40;;;;;;;0.20;0.20;;;;;;;;;;5058566;28;20025;-75
2023/11/16 05:13:06;;;;;;;0.10;0.10;;;;;;;;;;5053907;28;20021;-76
2023/11/16 05:15:32;;;;;;;0.30;0.30;;;;;;;;;;5050710;28;20028;-76
2023/11/16 05:17:58;;;;;;;0.20;0.20;;;;;;;;;;5060003;28;20029;-76
2023/11/16 05:20:24;;;;;;;0.28;0.10;;;;;;;;;;5052105;28;20111;-76
2023/11/16 05:22:50;;;;;;;0.30;0.30;;;;;;;;;;5052498;28;20507;-76
2023/11/16 05:25:17;;;;;;;0.30;0.20;;;;;;;;;;5049276;28;20605;-76
2023/11/16 05:27:43;;;;;;;0.20;0.20;;;;;;;;;;5052945;28;20032;-76
2023/11/16 05:30:10;;;;;;;0.20;0.20;;;;;;;;;;5055946;28;20398;-76
2023/11/16 05:32:36;;;;;;;0.30;0.20;;;;;;;;;;5056290;28;20021;-76
2023/11/16 05:35:03;;;;;;;0.40;0.28;;;;;;;;;;5054777;28;20025;-76
2023/11/16 05:37:29;;;;;;;0.28;0.20;;;;;;;;;;5056834;28;20079;-76
2023/11/16 05:39:55;;;;;;;0.50;0.50;;;;;;;;;;5055869;28;20036;-76
2023/11/16 05:42:21;;;;;;;0.60;0.57;;;;;;;;;;5048155;28;20390;-76
2023/11/16 05:44:48;;;;;;;0.77;0.47;;;;;;;;;;5054904;28;20128;-76
2023/11/16 05:47:14;;;;;;;1.13;0.50;;;;;;;;;;5056044;28;20033;-76
2023/11/16 05:49:40;;;;;;;0.50;0.50;;;;;;;;;;5054743;28;20036;-76
2023/11/16 05:52:06;;;;;;;0.47;0.30;;;;;;;;;;5056887;28;20025;-76
2023/11/16 05:54:33;;;;;;;1.38;0.30;;;;;;;;;;5069826;28;20013;-76
2023/11/16 05:56:59;;;;;;;1.15;0.40;;;;;;;;;;5071215;28;20135;-76
2023/11/16 05:59:25;;;;;;;1.33;0.43;;;;;;;;;;5079695;28;20021;-75
2023/11/16 06:01:51;;;;;;;0.40;0.20;;;;;;;;;;5076127;28;20044;-75
2023/11/16 06:04:22;;;;;;;0.57;0.40;;;;;;;;;;5073744;28;20028;-76
2023/11/16 06:06:48;;;;;;;0.43;0.43;;;;;;;;;;5079090;28;20051;-75
2023/11/16 06:09:14;;;;;;;0.40;0.40;;;;;;;;;;5077445;28;20033;-76
2023/11/16 06:11:43;;;;;;;1.00;0.47;;;;;;;;;;5057639;28;20029;-75
2023/11/16 06:14:09;;;;;;;0.43;0.38;;;;;;;;;;5055780;28;20104;-76
2023/11/16 06:16:43;;;;;;;0.40;0.35;;;;;;;;;;5064728;28;20019;-76
2023/11/16 06:19:09;;;;;;;0.65;0.40;;;;;;;;;;5062421;28;20025;-76
2023/11/16 06:21:36;;;;;;;1.27;0.30;;;;;;;;;;5057103;28;20013;-76
2023/11/16 06:24:02;;;;;;;0.52;0.52;;;;;;;;;;5056307;28;20098;-77
2023/11/16 06:26:28;;;;;;;0.85;0.60;;;;;;;;;;5058464;28;20032;-76
2023/11/16 06:28:54;;;;;;;0.55;0.40;;;;;;;;;;5068006;28;20106;-77
2023/11/16 06:31:20;;;;;;;1.95;0.80;;;;;;;;;;5056018;28;20092;-76
2023/11/16 06:33:46;;;;;;;1.70;0.60;;;;;;;;;;5055212;28;20548;-77
2023/11/16 06:36:12;;;;;;;1.00;0.60;;;;;;;;;;5058704;28;20017;-77
2023/11/16 06:38:38;;;;;;;0.57;0.52;;;;;;;;;;5062735;28;20039;-76
2023/11/16 06:41:05;;;;;;;0.77;0.70;;;;;;;;;;5058639;28;20442;-76
2023/11/16 06:43:31;;;;;;;1.40;0.70;;;;;;;;;;5057363;28;20029;-77
2023/11/16 06:45:58;;;;;;;0.73;0.57;;;;;;;;;;5056399;28;20024;-77
2023/11/16 06:48:24;;;;;;;0.65;0.52;;;;;;;;;;5047756;28;20029;-76
2023/11/16 06:50:50;;;;;;;0.40;0.40;;;;;;;;;;5060178;28;20112;-76
2023/11/16 06:53:17;;;;;;;0.60;0.47;;;;;;;;;;5062135;28;20017;-76
2023/11/16 06:55:43;;;;;;;0.50;0.40;;;;;;;;;;5062911;28;20025;-76
2023/11/16 06:58:09;;;;;;;0.30;0.30;;;;;;;;;;5067656;28;20460;-77
2023/11/16 07:00:38;;;;;;;0.90;0.50;;;;;;;;;;5062016;28;20476;-76
2023/11/16 07:03:05;;;;;;;0.80;0.60;;;;;;;;;;5061260;28;20029;-77
2023/11/16 07:05:32;;;;;;;1.58;0.70;;;;;;;;;;5056765;28;20044;-77
2023/11/16 07:07:58;;;;;;;0.43;0.43;;;;;;;;;;5056202;28;20021;-76
2023/11/16 07:10:24;;;;;;;0.65;0.57;;;;;;;;;;5051314;28;20017;-77
2023/11/16 07:12:51;;;;;;;0.40;0.40;;;;;;;;;;5061498;28;20044;-77
2023/11/16 07:15:17;;;;;;;0.50;0.50;;;;;;;;;;5062942;28;20105;-76
2023/11/16 07:17:43;;;;;;;2.63;0.40;;;;;;;;;;5068089;28;20119;-76
2023/11/16 07:20:13;;;;;;;0.75;0.52;;;;;;;;;;5059149;28;20498;-77
2023/11/16 07:22:40;;;;;;;0.65;0.50;;;;;;;;;;5061453;28;20086;-77
2023/11/16 07:25:07;;;;;;;0.70;0.50;;;;;;;;;;5055912;28;20059;-77
2023/11/16 07:27:38;;;;;;;0.80;0.30;;;;;;;;;;5056416;28;20051;-78
2023/11/16 07:30:04;;;;;;;1.00;0.43;;;;;;;;;;5054498;28;20017;-77
2023/11/16 07:32:30;;;;;;;0.63;0.47;;;;;;;;;;5058412;28;20352;-77
2023/11/16 07:34:58;;;;;;;0.68;0.50;;;;;;;;;;5054948;28;20399;-76
2023/11/16 07:37:24;;;;;;;0.50;0.50;;;;;;;;;;5052985;28;20098;-76
2023/11/16 07:39:50;;;;;;;0.50;0.50;;;;;;;;;;5054216;28;20028;-76
2023/11/16 07:42:16;;;;;;;0.55;0.40;;;;;;;;;;5054763;28;20033;-77
2023/11/16 07:44:45;;;;;;;0.57;0.50;;;;;;;;;;5055774;28;20028;-77
2023/11/16 07:47:13;;;;;;;0.98;0.40;;;;;;;;;;5055566;28;20033;-77
2023/11/16 07:49:39;;;;;;;0.80;0.38;;;;;;;;;;5055192;28;20013;-77
2023/11/16 07:52:09;;;;;;;0.93;0.45;;;;;;;;;;5060515;28;20025;-76
2023/11/16 07:54:43;;;;;;;0.45;0.40;;;;;;;;;;5055122;28;20044;-77
2023/11/16 07:57:13;;;;;;;0.57;0.40;;;;;;;;;;5061657;28;20036;-76
2023/11/16 07:59:42;;;;;;;0.30;0.30;;;;;;;;;;5059572;28;20055;-76
2023/11/16 08:02:09;;;;;;;1.25;0.38;;;;;;;;;;5058308;28;20031;-76
2023/11/16 08:04:35;;;;;;;0.38;0.20;;;;;;;;;;5055563;28;20029;-76
2023/11/16 08:07:03;;;;;;;0.25;0.25;;;;;;;;;;5053819;28;20051;-76
2023/11/16 08:09:29;;;;;;;0.43;0.40;;;;;;;;;;5053347;28;20027;-77
2023/11/16 08:11:56;;;;;;;0.30;0.30;;;;;;;;;;5059202;28;20017;-76
2023/11/16 08:14:25;;;;;;;0.52;0.20;;;;;;;;;;5056394;28;20079;-77
2023/11/16 08:16:55;;;;;;;0.65;0.65;;;;;;;;;;5054851;28;20543;-77
2023/11/16 08:19:22;;;;;;;0.47;0.43;;;;;;;;;;5054365;28;20399;-77
2023/11/16 08:21:48;;;;;;;0.50;0.40;;;;;;;;;;5056005;28;20447;-77
2023/11/16 08:24:15;;;;;;;0.20;0.20;;;;;;;;;;5060531;28;20036;-77
2023/11/16 08:26:42;;;;;;;0.20;0.20;;;;;;;;;;5056132;28;20025;-77
2023/11/16 08:29:08;;;;;;;0.80;0.22;;;;;;;;;;5054203;28;20212;-77
2023/11/16 08:31:35;;;;;;;0.22;0.22;;;;;;;;;;5054014;28;20047;-75
2023/11/16 08:34:01;;;;;;;0.45;0.30;;;;;;;;;;5056012;28;20041;-75
2023/11/16 08:36:28;;;;;;;0.47;0.30;;;;;;;;;;5056187;28;20044;-76
2023/11/16 08:38:55;;;;;;;0.93;0.40;;;;;;;;;;5054960;28;20021;-75
2023/11/16 08:41:22;;;;;;;1.05;0.30;;;;;;;;;;5056014;28;20158;-76
2023/11/16 08:43:52;;;;;;;0.45;0.30;;;;;;;;;;5063942;28;20029;-76
2023/11/16 08:46:24;;;;;;;0.28;0.28;;;;;;;;;;5055573;28;20123;-78
2023/11/16 08:48:53;;;;;;;0.20;0.20;;;;;;;;;;5055950;28;20032;-78
2023/11/16 08:51:22;;;;;;;0.43;0.20;;;;;;;;;;5056710;28;20017;-77
2023/11/16 08:53:50;;;;;;;0.20;0.20;;;;;;;;;;5057892;28;20024;-77
2023/11/16 08:56:16;;;;;;;0.20;0.20;;;;;;;;;;5055128;28;20389;-77
2023/11/16 08:58:47;;;;;;;0.30;0.30;;;;;;;;;;5057283;28;20032;-79
2023/11/16 09:01:16;;;;;;;0.73;0.43;;;;;;;;;;5052927;28;20051;-76
2023/11/16 09:03:45;;;;;;;1.58;0.90;;;;;;;;;;5054242;28;20029;-77
2023/11/16 09:06:15;;;;;;;0.85;0.45;;;;;;;;;;5060385;28;20027;-78
2023/11/16 09:08:42;;;;;;;1.15;0.68;;;;;;;;;;5062459;28;20127;-81
2023/11/16 09:11:08;;;;;;;1.40;0.55;;;;;;;;;;5053728;28;20100;-78
2023/11/16 09:13:36;;;;;;;1.55;0.70;;;;;;;;;;5058463;28;20392;-78
2023/11/16 09:16:03;;;;;;;1.85;1.00;;;;;;;;;;5067027;28;20064;-78
2023/11/16 09:18:29;;;;;;;2.08;0.63;;;;;;;;;;5055291;28;20067;-77
2023/11/16 09:20:58;;;;;;;1.13;0.77;;;;;;;;;;5054538;28;20488;-77
2023/11/16 09:23:24;;;;;;;1.02;0.95;;;;;;;;;;5055256;28;20483;-76
2023/11/16 09:25:51;;;;;;;1.05;0.52;;;;;;;;;;5057481;28;20036;-76
2023/11/16 09:28:17;;;;;;;1.02;0.82;;;;;;;;;;5054719;28;20036;-79
2023/11/16 09:30:43;;;;;;;1.55;0.80;;;;;;;;;;5055821;28;20021;-78
2023/11/16 09:33:13;;;;;;;2.08;1.20;;;;;;;;;;5059930;28;20522;-78
2023/11/16 09:35:40;;;;;;;1.25;1.00;;;;;;;;;;5065594;28;20032;-76
2023/11/16 09:38:09;;;;;;;1.13;0.80;;;;;;;;;;5075344;28;20044;-76
2023/11/16 09:40:39;;;;;;;0.85;0.60;;;;;;;;;;5074907;28;20017;-76
2023/11/16 09:43:20;;;;;;;2.03;0.90;;;;;;;;;;5075141;28;20022;-76
2023/11/16 09:45:50;;;;;;;0.50;0.50;;;;;;;;;;5075462;28;20021;-76
2023/11/16 09:48:20;;;;;;;0.63;0.63;;;;;;;;;;5075603;28;20028;-76
2023/11/16 09:50:48;;;;;;;1.08;0.73;;;;;;;;;;5074334;28;20006;-78
2023/11/16 09:53:22;;;;;;;1.52;1.20;;;;;;;;;;5073581;28;20028;-77
2023/11/16 09:55:56;;;;;;;0.68;0.60;;;;;;;;;;5069146;28;20016;-77
2023/11/16 09:58:29;;;;;;;0.60;0.50;;;;;;;;;;5075965;28;20026;-77
2023/11/16 10:00:59;;;;;;;0.77;0.60;;;;;;;;;;5075956;28;20045;-77
2023/11/16 10:03:30;;;;;;;1.00;0.50;;;;;;;;;;5074696;28;20025;-77
2023/11/16 10:05:57;;;;;;;0.50;0.50;;;;;;;;;;5075922;28;20017;-77
2023/11/16 10:08:25;;;;;;;0.57;0.52;;;;;;;;;;5060157;28;20033;-77
2023/11/16 10:11:02;;;;;;;0.45;0.45;;;;;;;;;;5070372;28;20013;-77
2023/11/16 10:13:28;;;;;;;0.30;0.30;;;;;;;;;;5076418;28;20028;-77
2023/11/16 10:15:59;;;;;;;0.40;0.40;;;;;;;;;;5080072;28;20021;-77
2023/11/16 10:18:28;;;;;;;0.35;0.20;;;;;;;;;;5079439;28;20487;-76
2023/11/16 10:20:54;;;;;;;0.50;0.45;;;;;;;;;;5075957;28;20068;-77
2023/11/16 10:23:23;;;;;;;0.20;0.20;;;;;;;;;;5058869;28;20513;-77
2023/11/16 10:25:49;;;;;;;0.40;0.40;;;;;;;;;;5058524;28;20054;-77
2023/11/16 10:28:16;;;;;;;0.45;0.43;;;;;;;;;;5056705;28;20047;-76
2023/11/16 10:30:54;;;;;;;0.80;0.20;;;;;;;;;;5079308;22;20072;-79
2023/11/16 10:33:21;;;;;;;1.70;1.02;;;;;;;;;;5085137;28;20047;-77
2023/11/16 10:35:51;;;;;;;0.32;0.20;;;;;;;;;;5080530;28;20040;-78
2023/11/16 10:38:21;;;;;;;1.00;0.30;;;;;;;;;;5083045;28;20048;-77
2023/11/16 10:40:51;;;;;;;0.75;0.30;;;;;;;;;;5081891;28;20025;-78
2023/11/16 10:43:19;;;;;;;1.50;0.25;;;;;;;;;;5077207;28;20024;-78
2023/11/16 10:45:46;;;;;;;0.22;0.22;;;;;;;;;;5077610;28;20312;-78
2023/11/16 10:48:13;;;;;;;0.50;0.50;;;;;;;;;;5079286;28;20020;-78
2023/11/16 10:50:42;;;;;;;1.73;0.80;;;;;;;;;;5074894;28;20020;-79
2023/11/16 10:53:22;;;;;;;1.02;0.70;;;;;;;;;;5070642;28;20013;-78
2023/11/16 10:55:49;;;;;;;1.25;0.47;;;;;;;;;;5076439;28;20355;-78
2023/11/16 10:58:20;;;;;;;1.23;0.50;;;;;;;;;;5075421;28;20065;-79
2023/11/16 11:00:48;;;;;;;0.40;0.40;;;;;;;;;;5062157;28;20081;-77
2023/11/16 11:03:14;;;;;;;0.50;0.40;;;;;;;;;;5066805;28;20051;-78
2023/11/16 11:05:41;;;;;;;0.65;0.57;;;;;;;;;;5075491;28;20497;-78
2023/11/16 11:08:11;;;;;;;1.25;0.70;;;;;;;;;;5073572;28;20052;-78
2023/11/16 11:10:38;;;;;;;0.43;0.43;;;;;;;;;;5076433;28;20016;-78
2023/11/16 11:13:05;;;;;;;1.45;0.60;;;;;;;;;;5068152;28;20020;-78
2023/11/16 11:15:31;;;;;;;0.88;0.35;;;;;;;;;;5071601;28;20021;-78
2023/11/16 11:18:37;;;;;;;0.50;0.50;;;;;;;;;;5072854;28;20433;-77
2023/11/16 11:21:09;;;;;;;0.75;0.40;;;;;;;;;;5075213;28;20029;-79
2023/11/16 11:23:39;;;;;;;0.55;0.30;;;;;;;;;;5067267;28;20028;-79
2023/11/16 11:26:13;;;;;;;1.45;0.25;;;;;;;;;;5066067;28;20028;-79
2023/11/16 11:28:41;;;;;;;0.52;0.38;;;;;;;;;;5076637;28;20025;-77
2023/11/16 11:31:10;;;;;;;0.30;0.30;;;;;;;;;;5068156;28;20037;-80
2023/11/16 11:33:41;;;;;;;0.57;0.50;;;;;;;;;;5083713;28;20017;-79
2023/11/16 11:36:09;;;;;;;0.73;0.40;;;;;;;;;;5068336;28;20025;-79
2023/11/16 11:38:42;;;;;;;0.70;0.40;;;;;;;;;;5078166;28;20296;-78
2023/11/16 11:41:12;;;;;;;0.47;0.47;;;;;;;;;;5073604;28;20046;-78
2023/11/16 11:43:39;;;;;;;0.60;0.50;;;;;;;;;;5081131;28;20043;-77
2023/11/16 11:46:08;;;;;;;0.60;0.47;;;;;;;;;;5081102;28;20024;-80
2023/11/16 11:48:34;;;;;;;0.43;0.32;;;;;;;;;;5088193;28;20017;-79
2023/11/16 11:51:02;;;;;;;0.40;0.40;;;;;;;;;;5076774;28;20032;-78
2023/11/16 11:53:29;;;;;;;0.20;0.20;;;;;;;;;;5087794;28;20012;-80
2023/11/16 11:55:57;;;;;;;0.30;0.25;;;;;;;;;;5100751;28;20017;-80
2023/11/16 11:58:24;;;;;;;0.47;0.47;;;;;;;;;;5087527;28;20035;-78
2023/11/16 12:00:51;;;;;;;0.28;0.22;;;;;;;;;;5076008;28;20037;-78
2023/11/16 12:03:17;;;;;;;0.30;0.30;;;;;;;;;;5070909;28;20472;-77
2023/11/16 12:05:45;;;;;;;0.15;0.15;;;;;;;;;;5074587;28;20025;-78
2023/11/16 12:08:11;;;;;;;0.22;0.20;;;;;;;;;;5070063;28;20053;-78
2023/11/16 12:10:38;;;;;;;0.10;0.10;;;;;;;;;;5061564;28;20025;-77
2023/11/16 12:13:09;;;;;;;0.20;0.20;;;;;;;;;;5070342;28;20021;-78
2023/11/16 12:15:36;;;;;;;0.30;0.30;;;;;;;;;;5060459;28;20021;-79
2023/11/16 12:18:06;;;;;;;0.30;0.30;;;;;;;;;;5066219;28;20033;-77
2023/11/16 12:20:37;;;;;;;0.55;0.32;;;;;;;;;;5068031;28;20460;-77
2023/11/16 12:23:06;;;;;;;0.30;0.30;;;;;;;;;;5067518;28;20025;-78
2023/11/16 12:25:34;;;;;;;0.38;0.30;;;;;;;;;;5067386;28;20084;-78
2023/11/16 12:28:00;;;;;;;0.25;0.20;;;;;;;;;;5067296;28;20063;-78
2023/11/16 12:30:26;;;;;;;0.55;0.35;;;;;;;;;;5083207;28;21723;-79
2023/11/16 12:32:54;;;;;;;0.22;0.20;;;;;;;;;;5070791;28;20073;-77
2023/11/16 12:35:20;;;;;;;0.20;0.20;;;;;;;;;;5066421;28;20024;-78
2023/11/16 12:37:51;;;;;;;0.30;0.30;;;;;;;;;;5081223;28;20158;-78
2023/11/16 12:40:18;;;;;;;0.40;0.40;;;;;;;;;;5077744;28;20021;-79
2023/11/16 12:42:45;;;;;;;0.25;0.20;;;;;;;;;;5079670;28;20059;-78
2023/11/16 12:45:11;;;;;;;0.35;0.30;;;;;;;;;;5075645;28;20161;-77
2023/11/16 12:47:38;;;;;;;0.25;0.25;;;;;;;;;;5075501;28;20039;-80
2023/11/16 12:50:07;;;;;;;0.30;0.30;;;;;;;;;;5065707;28;20462;-79
2023/11/16 12:52:36;;;;;;;0.35;0.35;;;;;;;;;;5071798;28;20021;-78
2023/11/16 12:55:04;;;;;;;0.70;0.30;;;;;;;;;;5074554;28;20044;-79
2023/11/16 12:57:30;;;;;;;0.55;0.50;;;;;;;;;;5071968;28;20433;-78
2023/11/16 12:59:57;;;;;;;0.95;0.40;;;;;;;;;;5077633;28;20075;-78
2023/11/16 13:02:25;;;;;;;0.93;0.55;;;;;;;;;;5076846;28;20032;-79
2023/11/16 13:04:51;;;;;;;0.70;0.50;;;;;;;;;;5078664;28;20111;-78
2023/11/16 13:07:17;;;;;;;0.52;0.52;;;;;;;;;;5074018;28;20036;-79
2023/11/16 13:09:44;;;;;;;1.52;0.60;;;;;;;;;;5062372;28;20025;-78
2023/11/16 13:12:10;;;;;;;1.05;0.40;;;;;;;;;;5080932;28;20021;-78
2023/11/16 13:14:36;;;;;;;2.83;1.10;;;;;;;;;;5065689;28;20437;-77
2023/11/16 13:17:03;;;;;;;0.85;0.63;;;;;;;;;;5067067;28;20021;-78
2023/11/16 13:19:29;;;;;;;2.55;0.80;;;;;;;;;;5077870;28;20029;-78
2023/11/16 13:21:55;;;;;;;2.28;0.77;;;;;;;;;;5072886;28;20017;-79
2023/11/16 13:24:24;;;;;;;1.30;0.70;;;;;;;;;;5077150;28;20036;-78
2023/11/16 13:26:53;;;;;;;1.65;0.68;;;;;;;;;;5080894;28;20493;-79
2023/11/16 13:29:19;;;;;;;3.80;0.68;;;;;;;;;;5076932;28;20111;-79
2023/11/16 13:31:45;;;;;;;3.25;0.55;;;;;;;;;;5076919;28;20387;-79
2023/11/16 13:34:11;;;;;;;1.58;0.70;;;;;;;;;;5070844;28;20024;-79
2023/11/16 13:36:37;;;;;;;1.95;0.75;;;;;;;;;;5083825;28;20032;-79
2023/11/16 13:39:07;;;;;;;0.82;0.60;;;;;;;;;;5084441;28;20025;-80
2023/11/16 13:41:33;;;;;;;0.85;0.60;;;;;;;;;;5073446;28;20531;-80
2023/11/16 13:44:00;;;;;;;1.15;0.60;;;;;;;;;;5076571;28;20237;-79
2023/11/16 13:46:26;;;;;;;1.80;0.40;;;;;;;;;;5069805;28;20031;-79
2023/11/16 13:48:52;;;;;;;1.77;0.90;;;;;;;;;;5082398;28;20060;-79
2023/11/16 13:51:18;;;;;;;2.47;1.00;;;;;;;;;;5082764;28;20020;-80
2023/11/16 13:53:44;;;;;;;2.05;0.80;;;;;;;;;;5078713;28;20045;-79
2023/11/16 13:56:10;;;;;;;2.17;0.77;;;;;;;;;;5087620;28;20024;-80
2023/11/16 13:58:36;;;;;;;1.45;0.70;;;;;;;;;;5079082;28;20078;-79
2023/11/16 14:01:02;;;;;;;0.40;0.40;;;;;;;;;;5080844;28;20028;-80
2023/11/16 14:03:29;;;;;;;1.88;0.65;;;;;;;;;;5080972;28;20032;-80
2023/11/16 14:05:56;;;;;;;2.25;0.65;;;;;;;;;;5082804;28;20058;-79
2023/11/16 14:08:22;;;;;;;0.80;0.60;;;;;;;;;;5088337;28;20072;-79
2023/11/16 14:10:48;;;;;;;1.00;0.50;;;;;;;;;;5084840;28;20027;-79
2023/11/16 14:13:14;;;;;;;1.25;0.65;;;;;;;;;;5075671;28;20025;-80
2023/11/16 14:15:40;;;;;;;0.90;0.60;;;;;;;;;;5091598;28;20035;-79
2023/11/16 14:18:08;;;;;;;0.40;0.40;;;;;;;;;;5083912;28;20108;-80
2023/11/16 14:20:34;;;;;;;0.43;0.40;;;;;;;;;;5085773;28;20030;-78
2023/11/16 14:23:00;;;;;;;1.23;0.50;;;;;;;;;;5090279;28;20060;-80
2023/11/16 14:25:28;;;;;;;1.30;0.60;;;;;;;;;;5086736;28;20036;-80
2023/11/16 14:27:55;;;;;;;0.75;0.50;;;;;;;;;;5089394;28;20016;-78
2023/11/16 14:30:21;;;;;;;0.80;0.38;;;;;;;;;;5090458;28;20368;-78
2023/11/16 14:32:48;;;;;;;0.50;0.50;;;;;;;;;;5086985;28;20024;-79
2023/11/16 14:35:16;;;;;;;0.35;0.35;;;;;;;;;;5083294;28;20021;-79
2023/11/16 14:37:42;;;;;;;0.35;0.35;;;;;;;;;;5076683;28;20020;-79
2023/11/16 14:40:09;;;;;;;0.38;0.38;;;;;;;;;;5087045;28;20052;-78
2023/11/16 14:42:35;;;;;;;0.77;0.60;;;;;;;;;;5073643;28;20119;-77
2023/11/16 14:45:03;;;;;;;1.35;0.43;;;;;;;;;;5079961;28;20070;-79
2023/11/16 14:47:30;;;;;;;2.15;1.50;;;;;;;;;;5080273;28;20029;-77